createdAt,value
2023-03-02T00:01:56.145Z,25.23
2023-03-02T00:04:26.464Z,25.27
2023-03-02T00:07:04.309Z,27.85
2023-03-02T00:09:31.921Z,28.63
2023-03-02T00:11:59.555Z,33.78
2023-03-02T00:14:27.176Z,29.98
2023-03-02T00:16:54.729Z,30.50
2023-03-02T00:19:22.486Z,30.05
2023-03-02T00:21:50.060Z,28.98
2023-03-02T00:24:18.981Z,28.23
2023-03-02T00:26:46.569Z,26.70
2023-03-02T00:29:14.168Z,26.98
2023-03-02T00:31:41.776Z,26.95
2023-03-02T00:34:09.427Z,27.95
2023-03-02T00:36:37.009Z,26.85
2023-03-02T00:39:05.476Z,27.33
2023-03-02T00:41:34.410Z,26.67
2023-03-02T00:44:02.010Z,27.13
2023-03-02T00:46:29.828Z,27.65
2023-03-02T00:48:57.477Z,27.17
2023-03-02T00:51:25.098Z,27.55
2023-03-02T00:53:52.710Z,29.05
2023-03-02T00:56:20.311Z,28.25
2023-03-02T00:58:49.605Z,28.58
2023-03-02T01:01:18.695Z,25.55
2023-03-02T01:03:46.520Z,26.25
2023-03-02T01:06:17.977Z,26.48
2023-03-02T01:08:45.721Z,24.83
2023-03-02T01:11:14.561Z,25.67
2023-03-02T01:13:42.177Z,26.52
2023-03-02T01:16:11.905Z,25.52
2023-03-02T01:18:40.044Z,25.40
2023-03-02T01:21:11.281Z,25.75
2023-03-02T01:23:38.855Z,20.15
2023-03-02T01:26:06.700Z,29.20
2023-03-02T01:28:34.380Z,28.58
2023-03-02T01:31:04.456Z,26.70
2023-03-02T01:33:33.899Z,27.15
2023-03-02T01:36:01.655Z,26.73
2023-03-02T01:38:29.491Z,25.38
2023-03-02T01:40:57.105Z,26.67
2023-03-02T01:43:24.818Z,26.80
2023-03-02T01:45:54.634Z,26.23
2023-03-02T01:48:27.201Z,27.65
2023-03-02T01:50:56.344Z,26.08
2023-03-02T01:53:26.941Z,26.00
2023-03-02T01:55:54.700Z,26.35
2023-03-02T01:58:22.648Z,28.00
2023-03-02T02:00:50.702Z,26.58
2023-03-02T02:03:22.019Z,27.52
2023-03-02T02:05:57.691Z,27.00
2023-03-02T02:08:25.440Z,28.48
2023-03-02T02:10:54.069Z,27.00
2023-03-02T02:13:21.729Z,25.67
2023-03-02T02:15:49.481Z,27.17
2023-03-02T02:18:17.155Z,28.10
2023-03-02T02:20:46.065Z,29.13
2023-03-02T02:23:26.922Z,28.23
2023-03-02T02:26:09.180Z,30.95
2023-03-02T02:31:09.235Z,27.85
2023-03-02T02:33:37.905Z,28.77
2023-03-02T02:36:09.082Z,28.40
2023-03-02T02:38:37.683Z,29.90
2023-03-02T02:41:08.530Z,29.13
2023-03-02T02:43:36.152Z,29.33
2023-03-02T02:46:04.017Z,29.55
2023-03-02T02:48:33.513Z,26.70
2023-03-02T02:51:02.994Z,27.63
2023-03-02T02:53:35.052Z,28.65
2023-03-02T02:58:34.658Z,29.48
2023-03-02T03:03:33.205Z,29.42
2023-03-02T03:06:02.525Z,29.45
2023-03-02T03:09:01.343Z,32.05
2023-03-02T03:11:30.706Z,33.20
2023-03-02T03:14:18.036Z,32.30
2023-03-02T03:16:47.290Z,29.88
2023-03-02T03:19:19.036Z,30.25
2023-03-02T03:21:47.101Z,32.42
2023-03-02T03:24:14.725Z,33.05
2023-03-02T03:26:42.418Z,32.13
2023-03-02T03:29:10.375Z,30.83
2023-03-02T03:31:39.428Z,32.70
2023-03-02T03:34:07.672Z,33.17
2023-03-02T03:36:35.779Z,31.70
2023-03-02T03:39:05.606Z,34.88
2023-03-02T03:41:33.517Z,31.23
2023-03-02T03:44:01.247Z,30.70
2023-03-02T03:46:29.864Z,30.95
2023-03-02T03:48:59.078Z,34.38
2023-03-02T03:51:26.947Z,31.00
2023-03-02T03:54:00.770Z,30.80
2023-03-02T03:56:28.913Z,32.55
2023-03-02T03:59:06.269Z,33.45
2023-03-02T04:01:35.169Z,31.27
2023-03-02T04:04:04.947Z,32.75
2023-03-02T04:06:32.789Z,33.70
2023-03-02T04:09:04.764Z,33.40
2023-03-02T04:14:00.263Z,31.80
2023-03-02T04:16:28.202Z,32.67
2023-03-02T04:18:56.060Z,34.67
2023-03-02T04:21:25.247Z,32.45
2023-03-02T04:23:52.824Z,34.05
2023-03-02T04:26:20.440Z,32.03
2023-03-02T04:28:50.648Z,29.98
2023-03-02T04:31:18.412Z,31.35
2023-03-02T04:33:46.072Z,33.63
2023-03-02T04:36:13.680Z,31.05
2023-03-02T04:38:42.588Z,34.10
2023-03-02T04:41:10.210Z,33.58
2023-03-02T04:43:37.852Z,34.40
2023-03-02T04:46:05.929Z,34.05
2023-03-02T04:48:33.598Z,33.17
2023-03-02T04:51:01.239Z,32.08
2023-03-02T04:53:28.858Z,33.47
2023-03-02T04:55:57.801Z,35.65
2023-03-02T04:58:25.474Z,33.00
2023-03-02T05:00:54.725Z,33.17
2023-03-02T05:03:22.347Z,36.58
2023-03-02T05:05:49.954Z,35.20
2023-03-02T05:08:17.547Z,33.95
2023-03-02T05:10:45.146Z,34.55
2023-03-02T05:13:14.127Z,34.05
2023-03-02T05:15:43.545Z,34.05
2023-03-02T05:18:12.633Z,34.17
2023-03-02T05:20:40.685Z,34.33
2023-03-02T05:23:09.886Z,32.55
2023-03-02T05:25:38.714Z,35.45
2023-03-02T05:28:06.541Z,32.03
2023-03-02T05:30:51.390Z,32.58
2023-03-02T05:33:20.217Z,34.33
2023-03-02T05:35:48.473Z,33.67
2023-03-02T05:38:16.686Z,33.80
2023-03-02T05:40:44.446Z,31.77
2023-03-02T05:43:16.274Z,33.15
2023-03-02T05:45:45.460Z,35.15
2023-03-02T05:48:14.234Z,33.75
2023-03-02T05:50:42.074Z,33.55
2023-03-02T05:53:10.075Z,35.22
2023-03-02T05:55:37.795Z,33.95
2023-03-02T05:58:05.915Z,33.92
2023-03-02T06:00:33.587Z,32.42
2023-03-02T06:03:02.582Z,32.55
2023-03-02T06:05:30.357Z,32.10
2023-03-02T06:07:57.992Z,34.42
2023-03-02T06:10:26.004Z,33.75
2023-03-02T06:12:53.795Z,34.83
2023-03-02T06:15:21.408Z,32.22
2023-03-02T06:17:49.355Z,34.92
2023-03-02T06:20:19.133Z,32.33
2023-03-02T06:22:47.563Z,33.33
2023-03-02T06:25:18.304Z,33.63
2023-03-02T06:27:47.026Z,33.10
2023-03-02T06:30:16.584Z,35.28
2023-03-02T06:32:44.226Z,34.88
2023-03-02T06:35:12.122Z,35.28
2023-03-02T06:37:43.731Z,32.92
2023-03-02T06:42:42.131Z,33.40
2023-03-02T06:45:10.694Z,33.85
2023-03-02T06:47:38.493Z,33.25
2023-03-02T06:50:07.165Z,34.97
2023-03-02T06:52:35.099Z,29.50
2023-03-02T06:55:04.372Z,32.75
2023-03-02T06:57:34.168Z,31.52
2023-03-02T07:00:06.879Z,30.48
2023-03-02T07:02:34.658Z,31.65
2023-03-02T07:05:02.265Z,31.67
2023-03-02T07:07:29.996Z,34.63
2023-03-02T07:09:57.568Z,32.80
2023-03-02T07:12:26.585Z,31.45
2023-03-02T07:14:54.229Z,31.77
2023-03-02T07:17:21.838Z,31.40
2023-03-02T07:19:49.541Z,32.13
2023-03-02T07:22:17.108Z,32.13
2023-03-02T07:24:45.083Z,31.48
2023-03-02T07:27:13.159Z,33.85
2023-03-02T07:29:42.116Z,31.95
2023-03-02T07:32:12.312Z,31.42
2023-03-02T07:34:40.317Z,34.70
2023-03-02T07:37:07.986Z,33.13
2023-03-02T07:39:35.627Z,33.72
2023-03-02T07:42:04.377Z,33.78
2023-03-02T07:44:32.296Z,30.08
2023-03-02T07:47:01.279Z,32.08
2023-03-02T07:49:28.898Z,32.60
2023-03-02T07:51:56.493Z,30.65
2023-03-02T07:54:26.391Z,31.48
2023-03-02T07:56:53.995Z,35.03
2023-03-02T07:59:21.585Z,31.20
2023-03-02T08:01:49.292Z,32.85
2023-03-02T08:04:18.207Z,32.70
2023-03-02T08:06:45.825Z,33.10
2023-03-02T08:09:16.479Z,32.08
2023-03-02T08:11:44.896Z,21.90
2023-03-02T08:14:12.544Z,32.80
2023-03-02T08:16:40.325Z,35.25
2023-03-02T08:19:08.278Z,30.60
2023-03-02T08:21:37.230Z,31.05
2023-03-02T08:24:05.143Z,27.92
2023-03-02T08:26:32.958Z,27.17
2023-03-02T08:29:00.647Z,28.10
2023-03-02T08:31:28.594Z,27.83
2023-03-02T08:33:56.389Z,30.98
2023-03-02T08:36:24.028Z,27.90
2023-03-02T08:38:53.400Z,29.00
2023-03-02T08:41:22.565Z,29.85
2023-03-02T08:43:50.421Z,31.30
2023-03-02T08:46:19.647Z,30.65
2023-03-02T08:48:47.866Z,32.65
2023-03-02T08:51:17.256Z,33.47
2023-03-02T08:53:46.669Z,32.38
2023-03-02T08:56:18.413Z,30.05
2023-03-02T08:58:46.022Z,30.08
2023-03-02T09:01:17.990Z,28.13
2023-03-02T09:03:45.837Z,27.25
2023-03-02T09:06:14.304Z,29.40
2023-03-02T09:08:42.536Z,32.15
2023-03-02T09:11:10.397Z,31.88
2023-03-02T09:13:39.596Z,34.97
2023-03-02T09:16:08.495Z,30.80
2023-03-02T09:18:36.702Z,29.98
2023-03-02T09:21:05.264Z,34.20
2023-03-02T09:23:33.104Z,32.00
2023-03-02T09:26:00.801Z,32.33
2023-03-02T09:28:28.412Z,31.95
2023-03-02T09:30:59.846Z,30.88
2023-03-02T09:33:28.446Z,31.88
2023-03-02T09:35:56.116Z,32.63
2023-03-02T09:38:23.923Z,30.10
2023-03-02T09:41:06.284Z,31.05
2023-03-02T09:43:40.822Z,34.40
2023-03-02T09:46:17.018Z,31.77
2023-03-02T09:48:50.751Z,31.85
2023-03-02T09:51:27.920Z,29.90
2023-03-02T09:54:02.149Z,29.98
2023-03-02T09:56:29.896Z,31.88
2023-03-02T09:59:02.475Z,35.05
2023-03-02T10:01:37.808Z,31.70
2023-03-02T10:04:14.902Z,30.83
2023-03-02T10:06:42.567Z,30.23
2023-03-02T10:09:11.312Z,31.75
2023-03-02T10:11:54.811Z,32.65
2023-03-02T10:14:27.286Z,31.10
2023-03-02T10:17:05.843Z,32.00
2023-03-02T10:19:42.228Z,31.20
2023-03-02T10:22:16.558Z,30.88
2023-03-02T10:24:51.402Z,29.33
2023-03-02T10:27:26.000Z,30.30
2023-03-02T10:29:57.608Z,29.58
2023-03-02T10:32:28.965Z,30.55
2023-03-02T10:34:56.636Z,31.58
2023-03-02T10:37:26.023Z,34.05
2023-03-02T10:39:53.674Z,30.85
2023-03-02T10:42:23.180Z,30.75
2023-03-02T10:44:53.758Z,34.47
2023-03-02T10:47:23.772Z,33.50
2023-03-02T10:49:53.831Z,31.13
2023-03-02T10:52:23.325Z,27.38
2023-03-02T10:54:52.693Z,29.08
2023-03-02T10:57:30.867Z,28.98
2023-03-02T11:00:02.681Z,28.08
2023-03-02T11:02:30.928Z,29.23
2023-03-02T11:05:20.480Z,28.92
2023-03-02T11:07:53.350Z,28.10
2023-03-02T11:10:22.867Z,31.33
2023-03-02T11:12:52.508Z,29.77
2023-03-02T11:15:28.785Z,30.13
2023-03-02T11:18:02.289Z,29.05
2023-03-02T11:20:33.853Z,29.45
2023-03-02T11:23:12.433Z,30.58
2023-03-02T11:25:42.553Z,27.50
2023-03-02T11:28:13.770Z,26.65
2023-03-02T11:30:47.176Z,28.87
2023-03-02T11:33:20.118Z,29.90
2023-03-02T11:35:52.509Z,29.42
2023-03-02T11:38:24.370Z,29.90
2023-03-02T11:40:55.267Z,28.92
2023-03-02T11:43:22.950Z,29.30
2023-03-02T11:45:57.820Z,29.90
2023-03-02T11:48:27.789Z,30.45
2023-03-02T11:50:59.573Z,31.40
2023-03-02T11:53:31.646Z,30.88
2023-03-02T11:58:28.280Z,31.95
2023-03-02T12:00:56.586Z,33.40
2023-03-02T12:03:37.705Z,30.48
2023-03-02T12:06:09.734Z,29.92
2023-03-02T12:08:40.017Z,30.52
2023-03-02T12:11:10.065Z,31.90
2023-03-02T12:13:39.126Z,29.17
2023-03-02T12:16:20.341Z,32.13
2023-03-02T12:18:49.036Z,32.13
2023-03-02T12:21:20.347Z,36.40
2023-03-02T12:24:03.752Z,33.67
2023-03-02T12:26:35.642Z,30.92
2023-03-02T12:31:46.513Z,27.90
2023-03-02T12:34:34.008Z,34.75
2023-03-02T12:37:07.666Z,29.23
2023-03-02T12:39:46.795Z,31.63
2023-03-02T12:42:39.310Z,30.60
2023-03-02T12:47:43.212Z,30.52
2023-03-02T12:50:19.485Z,32.10
2023-03-02T12:52:58.332Z,32.28
2023-03-02T12:55:26.417Z,30.08
2023-03-02T12:57:55.515Z,30.13
2023-03-02T13:00:26.760Z,37.25
2023-03-02T13:02:56.013Z,32.33
2023-03-02T13:05:29.381Z,33.47
2023-03-02T13:08:00.399Z,29.38
2023-03-02T13:10:30.767Z,29.10
2023-03-02T13:12:59.578Z,31.83
2023-03-02T13:15:28.970Z,31.13
2023-03-02T13:17:58.251Z,29.70
2023-03-02T13:20:27.521Z,28.95
2023-03-02T13:22:55.706Z,29.45
2023-03-02T13:25:28.336Z,28.80
2023-03-02T13:27:57.870Z,30.15
2023-03-02T13:30:27.977Z,32.30
2023-03-02T13:33:01.589Z,31.35
2023-03-02T13:35:30.786Z,33.35
2023-03-02T13:38:03.455Z,31.85
2023-03-02T13:40:35.471Z,32.63
2023-03-02T13:43:08.537Z,32.92
2023-03-02T13:45:36.423Z,31.13
2023-03-02T13:48:15.325Z,33.22
2023-03-02T13:50:52.169Z,34.03
2023-03-02T13:53:19.922Z,30.35
2023-03-02T13:55:49.014Z,32.80
2023-03-02T13:58:19.577Z,33.90
2023-03-02T14:00:48.252Z,31.95
2023-03-02T14:03:27.384Z,29.50
2023-03-02T14:05:56.105Z,30.30
2023-03-02T14:08:23.880Z,31.20
2023-03-02T14:10:54.076Z,29.27
2023-03-02T14:13:23.685Z,30.40
2023-03-02T14:15:52.424Z,30.65
2023-03-02T14:18:39.052Z,29.75
2023-03-02T14:21:07.582Z,29.42
2023-03-02T14:23:35.227Z,28.45
2023-03-02T14:26:05.876Z,29.48
2023-03-02T14:28:36.051Z,31.52
2023-03-02T14:31:03.741Z,29.55
2023-03-02T14:33:31.396Z,28.63
2023-03-02T14:36:00.445Z,30.55
2023-03-02T14:38:28.727Z,29.75
2023-03-02T14:40:56.685Z,30.83
2023-03-02T14:43:26.066Z,28.85
2023-03-02T14:45:54.005Z,31.35
2023-03-02T14:48:21.597Z,31.42
2023-03-02T14:50:50.389Z,28.50
2023-03-02T14:53:20.482Z,32.20
2023-03-02T14:55:48.175Z,32.47
2023-03-02T14:58:19.977Z,30.95
2023-03-02T15:00:49.444Z,31.55
2023-03-02T15:03:22.867Z,32.72
2023-03-02T15:06:00.920Z,32.22
2023-03-02T15:08:29.858Z,30.67
2023-03-02T15:10:57.465Z,31.77
2023-03-02T15:13:25.126Z,30.13
2023-03-02T15:15:54.118Z,29.63
2023-03-02T15:18:21.709Z,31.23
2023-03-02T15:20:49.303Z,29.48
2023-03-02T15:23:16.888Z,32.42
2023-03-02T15:25:44.432Z,29.52
2023-03-02T15:28:12.021Z,33.58
2023-03-02T15:30:41.580Z,31.05
2023-03-02T15:33:10.550Z,30.90
2023-03-02T15:35:39.459Z,28.80
2023-03-02T15:38:07.071Z,30.65
2023-03-02T15:40:34.683Z,30.75
2023-03-02T15:43:02.269Z,29.88
2023-03-02T15:45:29.873Z,31.30
2023-03-02T15:47:57.512Z,31.45
2023-03-02T15:50:26.543Z,34.17
2023-03-02T15:52:54.134Z,31.75
2023-03-02T15:55:21.676Z,30.63
2023-03-02T15:57:49.246Z,33.78
2023-03-02T16:00:18.451Z,32.50
2023-03-02T16:02:46.071Z,33.28
2023-03-02T16:05:14.020Z,30.95
2023-03-02T16:07:44.586Z,32.75
2023-03-02T16:10:16.361Z,30.10
2023-03-02T16:12:43.949Z,29.42
2023-03-02T16:15:12.000Z,29.52
2023-03-02T16:17:39.571Z,32.28
2023-03-02T16:20:07.985Z,30.73
2023-03-02T16:22:35.622Z,30.13
2023-03-02T16:25:04.901Z,30.00
2023-03-02T16:27:32.465Z,30.02
2023-03-02T16:30:00.144Z,31.35
2023-03-02T16:32:28.109Z,30.58
2023-03-02T16:34:55.946Z,29.27
2023-03-02T16:37:23.734Z,33.60
2023-03-02T16:39:51.393Z,31.98
2023-03-02T16:42:21.171Z,31.83
2023-03-02T16:44:50.597Z,30.20
2023-03-02T16:47:18.190Z,28.98
2023-03-02T16:49:45.779Z,32.50
2023-03-02T16:52:13.387Z,33.10
2023-03-02T16:54:41.007Z,31.83
2023-03-02T16:57:09.497Z,32.85
2023-03-02T16:59:38.437Z,29.75
2023-03-02T17:02:06.123Z,31.52
2023-03-02T17:04:36.986Z,32.05
2023-03-02T17:07:04.920Z,30.15
2023-03-02T17:09:34.694Z,29.92
2023-03-02T17:12:02.311Z,29.50
2023-03-02T17:14:29.935Z,31.83
2023-03-02T17:16:58.895Z,47.45
2023-03-02T17:19:29.410Z,38.88
2023-03-02T17:21:58.007Z,30.83
2023-03-02T17:24:25.696Z,30.42
2023-03-02T17:26:53.470Z,29.77
2023-03-02T17:29:21.677Z,29.02
2023-03-02T17:31:49.320Z,29.88
2023-03-02T17:34:18.318Z,32.22
2023-03-02T17:36:45.933Z,37.63
2023-03-02T17:39:13.765Z,35.80
2023-03-02T17:41:42.475Z,31.35
2023-03-02T17:44:10.063Z,33.85
2023-03-02T17:46:37.639Z,30.67
2023-03-02T17:49:05.265Z,32.22
2023-03-02T17:51:34.189Z,29.63
2023-03-02T17:54:01.833Z,30.90
2023-03-02T17:56:30.066Z,33.30
2023-03-02T17:58:59.579Z,30.38
2023-03-02T18:01:28.290Z,29.55
2023-03-02T18:03:56.064Z,30.25
2023-03-02T18:06:23.821Z,30.25
2023-03-02T18:08:52.952Z,29.40
2023-03-02T18:11:22.754Z,30.08
2023-03-02T18:13:50.756Z,30.20
2023-03-02T18:16:18.420Z,30.60
2023-03-02T18:18:46.030Z,35.95
2023-03-02T18:21:13.710Z,31.17
2023-03-02T18:23:41.979Z,30.55
2023-03-02T18:26:12.556Z,29.77
2023-03-02T18:28:41.653Z,31.52
2023-03-02T18:31:09.705Z,31.30
2023-03-02T18:33:37.453Z,31.02
2023-03-02T18:36:06.030Z,38.50
2023-03-02T18:38:34.821Z,44.00
2023-03-02T18:41:04.722Z,46.28
2023-03-02T18:43:35.718Z,51.63
2023-03-02T18:46:04.293Z,54.25
2023-03-02T18:48:32.747Z,50.00
2023-03-02T18:51:00.356Z,39.45
2023-03-02T18:53:28.053Z,44.17
2023-03-02T18:55:56.256Z,49.53
2023-03-02T18:58:25.603Z,42.47
2023-03-02T19:00:55.152Z,32.85
2023-03-02T19:03:24.793Z,29.02
2023-03-02T19:05:57.623Z,28.83
2023-03-02T19:08:26.407Z,31.10
2023-03-02T19:10:55.123Z,34.72
2023-03-02T19:13:23.250Z,38.53
2023-03-02T19:15:50.975Z,28.70
2023-03-02T19:18:21.801Z,29.85
2023-03-02T19:20:54.249Z,30.25
2023-03-02T19:23:21.919Z,30.30
2023-03-02T19:25:49.790Z,30.92
2023-03-02T19:28:17.423Z,33.63
2023-03-02T19:30:45.093Z,33.63
2023-03-02T19:33:12.695Z,30.95
2023-03-02T19:35:41.809Z,30.90
2023-03-02T19:38:10.284Z,30.42
2023-03-02T19:40:38.625Z,28.63
2023-03-02T19:43:06.820Z,27.00
2023-03-02T19:45:36.209Z,29.45
2023-03-02T19:48:05.757Z,28.58
2023-03-02T19:50:33.621Z,28.98
2023-03-02T19:53:02.940Z,27.55
2023-03-02T19:55:30.562Z,27.20
2023-03-02T19:58:00.127Z,30.30
2023-03-02T20:00:29.787Z,29.33
2023-03-02T20:02:57.626Z,29.25
2023-03-02T20:05:26.121Z,32.83
2023-03-02T20:07:54.089Z,34.17
2023-03-02T20:10:28.178Z,35.10
2023-03-02T20:12:55.836Z,33.78
2023-03-02T20:15:23.429Z,33.78
2023-03-02T20:17:51.035Z,34.22
2023-03-02T20:20:18.807Z,35.53
2023-03-02T20:22:46.501Z,34.25
2023-03-02T20:25:14.769Z,35.00
2023-03-02T20:27:43.933Z,38.40
2023-03-02T20:30:15.631Z,36.55
2023-03-02T20:32:43.338Z,33.80
2023-03-02T20:35:13.629Z,31.15
2023-03-02T20:37:42.062Z,32.67
2023-03-02T20:40:10.848Z,30.52
2023-03-02T20:42:39.973Z,32.30
2023-03-02T20:45:10.379Z,32.53
2023-03-02T20:47:38.575Z,34.83
2023-03-02T20:50:07.403Z,31.92
2023-03-02T20:52:36.915Z,37.00
2023-03-02T20:55:05.447Z,33.40
2023-03-02T20:57:33.378Z,31.75
2023-03-02T21:00:02.415Z,28.55
2023-03-02T21:02:31.383Z,33.03
2023-03-02T21:04:59.112Z,28.80
2023-03-02T21:07:26.898Z,30.08
2023-03-02T21:09:54.533Z,31.63
2023-03-02T21:12:22.205Z,31.75
2023-03-02T21:14:49.952Z,32.17
2023-03-02T21:17:17.556Z,33.75
2023-03-02T21:19:46.524Z,30.48
2023-03-02T21:22:14.132Z,29.98
2023-03-02T21:24:41.754Z,34.70
2023-03-02T21:27:09.372Z,32.20
2023-03-02T21:29:37.073Z,35.35
2023-03-02T21:32:06.173Z,36.05
2023-03-02T21:34:33.818Z,35.97
2023-03-02T21:37:04.732Z,34.83
2023-03-02T21:39:32.613Z,34.40
2023-03-02T21:42:00.283Z,34.08
2023-03-02T21:44:27.877Z,31.65
2023-03-02T21:46:55.500Z,33.53
2023-03-02T21:49:24.007Z,34.08
2023-03-02T21:51:51.642Z,34.67
2023-03-02T21:54:20.545Z,37.22
2023-03-02T21:56:48.155Z,36.97
2023-03-02T21:59:15.818Z,40.97
2023-03-02T22:01:43.939Z,37.50
2023-03-02T22:04:11.686Z,36.53
2023-03-02T22:06:39.322Z,42.25
2023-03-02T22:09:07.007Z,39.33
2023-03-02T22:11:37.308Z,39.60
2023-03-02T22:14:12.244Z,40.00
2023-03-02T22:16:41.147Z,40.15
2023-03-02T22:19:21.542Z,40.38
2023-03-02T22:21:50.257Z,44.80
2023-03-02T22:24:21.736Z,41.00
2023-03-02T22:26:55.016Z,37.38
2023-03-02T22:29:24.963Z,41.10
2023-03-02T22:31:54.084Z,36.90
2023-03-02T22:34:24.930Z,33.35
2023-03-02T22:36:52.841Z,30.60
2023-03-02T22:39:28.155Z,36.67
2023-03-02T22:42:00.331Z,36.78
2023-03-02T22:44:27.945Z,31.35
2023-03-02T22:46:56.490Z,31.58
2023-03-02T22:49:24.254Z,30.60
2023-03-02T22:51:51.855Z,30.48
2023-03-02T22:54:23.677Z,37.72
2023-03-02T22:56:53.692Z,34.92
2023-03-02T22:59:24.966Z,32.83
2023-03-02T23:01:53.475Z,24.45
2023-03-02T23:04:24.206Z,32.20
2023-03-02T23:06:53.213Z,31.05
2023-03-02T23:09:23.611Z,30.10
2023-03-02T23:11:51.654Z,32.30
2023-03-02T23:14:25.878Z,30.13
2023-03-02T23:16:56.129Z,30.88
2023-03-02T23:19:23.850Z,28.83
2023-03-02T23:21:51.453Z,29.75
2023-03-02T23:24:21.833Z,31.75
2023-03-02T23:26:50.453Z,28.45
2023-03-02T23:29:18.473Z,29.02
2023-03-02T23:31:47.537Z,29.92
2023-03-02T23:34:15.215Z,29.02
2023-03-02T23:36:42.990Z,28.75
2023-03-02T23:39:11.286Z,28.85
2023-03-02T23:41:39.560Z,27.58
2023-03-02T23:44:07.616Z,28.85
2023-03-02T23:46:35.402Z,28.85
2023-03-02T23:49:04.341Z,29.13
2023-03-02T23:51:31.870Z,30.33
2023-03-02T23:53:59.444Z,28.65
2023-03-02T23:56:27.009Z,29.40
2023-03-02T23:58:54.636Z,28.45
